Keren, Eritrea
Current Conditions -  °F | °C
As of 10:00 PM on Thursday 23 Oct 2014 (Local Time) from OEGN Reporting Station
Few Clouds Few Clouds  
Wind Chill: 90°   Ceiling: Unl
Heat Index: 105°   Visibility: 6mi
Dew Point: 79°   Wind: 5mph
Humidity: 70%   Direction: 360°N
Pressure: 29.88"   Gusts: NA
Location:  15.68°N, 38.45°E
Report Text: OEGN 231900Z 36004KT 9999 FEW030 32/26 Q1012 NOSIG
Loading
Personal Weather Stations






























Interactive Weather Map
Tropical Storm Tracking
New forecast layout! Learn more

10-Day Weather Forecast

Advertisements
Track Severe Weather on mobile